createdAt,value
2019-05-01T00:02:31.189Z,61.80
2019-05-01T00:05:15.830Z,62.00
2019-05-01T00:07:45.616Z,62.40
2019-05-01T00:10:16.201Z,62.70
2019-05-01T00:12:45.889Z,63.00
2019-05-01T00:15:16.298Z,63.00
2019-05-01T00:17:46.267Z,63.00
2019-05-01T00:20:16.293Z,63.10
2019-05-01T00:22:46.066Z,63.50
2019-05-01T00:25:15.797Z,63.50
2019-05-01T00:27:45.584Z,63.70
2019-05-01T00:30:29.256Z,63.70
2019-05-01T00:32:49.454Z,63.90
2019-05-01T00:35:19.197Z,64.00
2019-05-01T00:37:48.999Z,64.00
2019-05-01T00:40:18.698Z,64.10
2019-05-01T00:42:49.448Z,64.20
2019-05-01T00:45:19.302Z,64.30
2019-05-01T00:47:48.973Z,64.40
2019-05-01T00:50:18.676Z,64.60
2019-05-01T00:52:48.515Z,64.80
2019-05-01T00:55:37.276Z,64.80
2019-05-01T00:58:15.589Z,64.70
2019-05-01T01:01:05.153Z,64.70
2019-05-01T01:03:34.916Z,64.80
2019-05-01T01:06:05.180Z,64.80
2019-05-01T01:08:34.930Z,64.80
2019-05-01T01:11:04.853Z,64.60
2019-05-01T01:13:34.682Z,64.80
2019-05-01T01:16:04.533Z,64.80
2019-05-01T01:18:34.226Z,64.90
2019-05-01T01:21:04.005Z,65.00
2019-05-01T01:23:35.930Z,64.80
2019-05-01T01:26:05.869Z,64.80
2019-05-01T01:28:35.543Z,64.90
2019-05-01T01:31:05.638Z,64.80
2019-05-01T01:33:35.464Z,64.80
2019-05-01T01:36:05.220Z,64.80
2019-05-01T01:38:35.054Z,64.90
2019-05-01T01:41:04.901Z,64.80
2019-05-01T01:43:42.227Z,64.90
2019-05-01T01:46:14.220Z,65.00
2019-05-01T01:48:44.096Z,64.80
2019-05-01T01:51:13.974Z,64.80
2019-05-01T01:53:44.430Z,64.90
2019-05-01T01:56:14.389Z,65.70
2019-05-01T01:58:44.551Z,64.90
2019-05-01T02:01:32.130Z,64.80
2019-05-01T02:04:07.211Z,65.00
2019-05-01T02:06:37.209Z,65.20
2019-05-01T02:09:08.425Z,65.00
2019-05-01T02:11:39.660Z,65.10
2019-05-01T02:14:09.515Z,65.20
2019-05-01T02:16:39.249Z,65.10
2019-05-01T02:19:09.149Z,65.10
2019-05-01T02:21:39.045Z,65.20
2019-05-01T02:24:08.753Z,65.20
2019-05-01T02:26:42.939Z,65.20
2019-05-01T02:29:23.885Z,65.00
2019-05-01T02:31:55.639Z,65.30
2019-05-01T02:34:26.496Z,65.30
2019-05-01T02:36:59.196Z,65.40
2019-05-01T02:39:32.513Z,65.30
2019-05-01T02:42:02.587Z,65.30
2019-05-01T02:44:42.502Z,65.30
2019-05-01T02:47:18.151Z,65.70
2019-05-01T02:49:54.702Z,65.30
2019-05-01T02:52:28.419Z,65.30
2019-05-01T02:55:02.139Z,65.50
2019-05-01T02:57:33.415Z,65.50
2019-05-01T03:00:04.233Z,65.60
2019-05-01T03:02:34.752Z,65.70
2019-05-01T03:05:04.720Z,65.60
2019-05-01T03:07:36.384Z,65.60
2019-05-01T03:10:09.542Z,65.80
2019-05-01T03:12:41.771Z,65.80
2019-05-01T03:15:13.032Z,65.90
2019-05-01T03:18:16.320Z,66.00
2019-05-01T03:20:52.493Z,65.90
2019-05-01T03:23:32.135Z,65.70
2019-05-01T03:26:02.029Z,65.90
2019-05-01T03:28:32.339Z,65.90
2019-05-01T03:31:02.630Z,66.10
2019-05-01T03:33:32.680Z,66.10
2019-05-01T03:36:03.159Z,66.20
2019-05-01T03:38:33.011Z,65.90
2019-05-01T03:41:03.637Z,65.90
2019-05-01T03:43:33.749Z,65.90
2019-05-01T03:46:03.607Z,66.70
2019-05-01T03:48:34.027Z,66.10
2019-05-01T03:51:03.900Z,66.10
2019-05-01T03:53:34.464Z,66.10
2019-05-01T03:56:04.438Z,66.30
2019-05-01T03:58:34.311Z,66.00
2019-05-01T04:01:22.579Z,65.90
2019-05-01T04:03:56.336Z,66.00
2019-05-01T04:06:26.518Z,66.00
2019-05-01T04:08:56.389Z,66.10
2019-05-01T04:11:26.368Z,66.20
2019-05-01T04:13:57.402Z,66.20
2019-05-01T04:16:28.279Z,66.50
2019-05-01T04:18:58.192Z,66.40
2019-05-01T04:21:32.447Z,66.40
2019-05-01T04:24:02.505Z,66.30
2019-05-01T04:26:32.600Z,66.50
2019-05-01T04:29:28.763Z,66.60
2019-05-01T04:32:02.660Z,66.40
2019-05-01T04:35:09.780Z,66.60
2019-05-01T04:37:39.646Z,66.50
2019-05-01T04:40:09.634Z,66.30
2019-05-01T04:42:39.793Z,66.10
2019-05-01T04:45:09.995Z,66.10
2019-05-01T04:47:39.769Z,66.20
2019-05-01T04:50:09.755Z,66.20
2019-05-01T04:52:40.258Z,66.20
2019-05-01T04:55:10.633Z,66.20
2019-05-01T04:57:41.110Z,66.30
2019-05-01T05:00:11.052Z,66.40
2019-05-01T05:02:49.439Z,66.40
2019-05-01T05:05:19.645Z,66.40
2019-05-01T05:07:49.730Z,66.40
2019-05-01T05:10:19.676Z,66.40
2019-05-01T05:12:57.530Z,66.40
2019-05-01T05:15:37.270Z,66.70
2019-05-01T05:18:07.126Z,66.60
2019-05-01T05:20:37.401Z,66.60
2019-05-01T05:23:07.486Z,66.30
2019-05-01T05:25:37.750Z,66.30
2019-05-01T05:28:07.690Z,66.40
2019-05-01T05:30:37.961Z,66.40
2019-05-01T05:33:18.210Z,66.20
2019-05-01T05:35:43.508Z,66.30
2019-05-01T05:38:27.441Z,66.40
2019-05-01T05:41:00.395Z,66.20
2019-05-01T05:43:30.324Z,66.20
2019-05-01T05:46:00.669Z,66.20
2019-05-01T05:48:30.646Z,66.20
2019-05-01T05:51:14.705Z,66.10
2019-05-01T05:53:48.133Z,66.20
2019-05-01T05:56:23.934Z,66.10
2019-05-01T05:59:00.225Z,66.10
2019-05-01T06:01:42.025Z,66.10
2019-05-01T06:04:36.948Z,66.10
2019-05-01T06:07:23.307Z,66.30
2019-05-01T06:10:23.145Z,66.00
2019-05-01T06:13:17.988Z,66.10
2019-05-01T06:16:12.369Z,66.10
2019-05-01T06:19:02.843Z,66.10
2019-05-01T06:21:39.212Z,66.10
2019-05-01T06:24:14.962Z,66.20
2019-05-01T06:26:45.012Z,66.00
2019-05-01T06:29:14.829Z,66.10
2019-05-01T06:31:44.888Z,66.30
2019-05-01T06:34:14.872Z,65.90
2019-05-01T06:36:49.588Z,65.70
2019-05-01T06:39:16.392Z,65.70
2019-05-01T06:41:46.451Z,65.80
2019-05-01T06:44:25.668Z,65.60
2019-05-01T06:47:20.847Z,65.80
2019-05-01T06:50:01.095Z,65.60
2019-05-01T06:52:30.755Z,66.20
2019-05-01T06:55:00.687Z,65.50
2019-05-01T06:57:30.962Z,65.30
2019-05-01T07:00:03.313Z,65.10
2019-05-01T07:02:35.077Z,65.30
2019-05-01T07:05:09.029Z,65.20
2019-05-01T07:07:38.272Z,65.00
2019-05-01T07:10:08.462Z,64.90
2019-05-01T07:12:38.529Z,64.50
2019-05-01T07:15:08.906Z,64.50
2019-05-01T07:17:38.804Z,64.30
2019-05-01T07:20:25.610Z,64.60
2019-05-01T07:22:55.841Z,64.10
2019-05-01T07:25:25.785Z,64.20
2019-05-01T07:27:58.441Z,64.10
2019-05-01T07:30:36.279Z,63.80
2019-05-01T07:33:06.393Z,63.80
2019-05-01T07:35:38.065Z,63.80
2019-05-01T07:38:08.155Z,63.50
2019-05-01T07:40:38.051Z,63.50
2019-05-01T07:43:27.576Z,63.40
2019-05-01T07:46:25.569Z,63.40
2019-05-01T07:48:55.829Z,63.10
2019-05-01T07:51:25.720Z,63.20
2019-05-01T07:53:59.104Z,63.00
2019-05-01T07:56:28.275Z,62.70
2019-05-01T07:58:59.496Z,62.90
2019-05-01T08:01:45.469Z,63.00
2019-05-01T08:04:18.396Z,63.30
2019-05-01T08:06:46.965Z,63.00
2019-05-01T08:09:16.824Z,62.40
2019-05-01T08:11:46.624Z,62.80
2019-05-01T08:14:18.249Z,62.50
2019-05-01T08:16:47.906Z,62.20
2019-05-01T08:19:23.231Z,62.20
2019-05-01T08:22:14.132Z,62.00
2019-05-01T08:24:43.842Z,61.80
2019-05-01T08:27:26.076Z,61.60
2019-05-01T08:30:05.610Z,61.30
2019-05-01T08:32:43.973Z,61.00
2019-05-01T08:35:16.100Z,61.30
2019-05-01T08:37:45.897Z,61.00
2019-05-01T08:40:20.089Z,60.80
2019-05-01T08:42:47.191Z,61.00
2019-05-01T08:45:28.605Z,60.90
2019-05-01T08:48:12.255Z,60.50
2019-05-01T08:50:42.062Z,60.40
2019-05-01T08:53:11.780Z,60.50
2019-05-01T08:55:45.160Z,60.20
2019-05-01T08:58:14.114Z,60.30
2019-05-01T09:00:44.313Z,60.10
2019-05-01T09:03:18.704Z,60.30
2019-05-01T09:05:45.704Z,59.60
2019-05-01T09:08:15.513Z,60.10
2019-05-01T09:10:45.258Z,60.10
2019-05-01T09:13:18.953Z,59.80
2019-05-01T09:15:48.390Z,59.70
2019-05-01T09:18:18.938Z,59.60
2019-05-01T09:20:50.826Z,59.70
2019-05-01T09:23:20.705Z,59.10
2019-05-01T09:25:59.760Z,59.00
2019-05-01T09:28:36.034Z,59.00
2019-05-01T09:31:06.377Z,58.60
2019-05-01T09:33:36.210Z,58.90
2019-05-01T09:36:06.117Z,58.70
2019-05-01T09:38:36.004Z,58.50
2019-05-01T09:41:05.984Z,58.00
2019-05-01T09:43:37.097Z,58.40
2019-05-01T09:46:07.061Z,57.80
2019-05-01T09:48:36.939Z,57.50
2019-05-01T09:51:32.025Z,57.00
2019-05-01T09:54:15.701Z,57.00
2019-05-01T09:56:45.589Z,57.20
2019-05-01T09:59:17.393Z,56.90
2019-05-01T10:01:47.001Z,56.40
2019-05-01T10:04:16.891Z,56.20
2019-05-01T10:06:47.774Z,55.80
2019-05-01T10:09:18.193Z,55.60
2019-05-01T10:11:48.005Z,54.70
2019-05-01T10:14:17.759Z,54.40
2019-05-01T10:16:47.661Z,53.30
2019-05-01T10:19:17.545Z,53.80
2019-05-01T10:21:47.280Z,54.50
2019-05-01T10:24:17.009Z,53.90
2019-05-01T10:26:48.466Z,53.10
2019-05-01T10:29:49.688Z,51.80
2019-05-01T10:32:23.662Z,51.00
2019-05-01T10:34:57.745Z,49.40
2019-05-01T10:37:28.230Z,49.10
2019-05-01T10:39:59.095Z,48.40
2019-05-01T10:42:28.894Z,46.90
2019-05-01T10:44:58.622Z,46.20
2019-05-01T10:47:28.423Z,45.20
2019-05-01T10:49:59.714Z,44.50
2019-05-01T10:52:29.455Z,44.00
2019-05-01T10:54:59.253Z,43.50
2019-05-01T10:57:29.061Z,42.70
2019-05-01T10:59:58.765Z,42.50
2019-05-01T11:02:28.653Z,42.80
2019-05-01T11:04:58.553Z,42.70
2019-05-01T11:07:28.341Z,42.50
2019-05-01T11:09:58.074Z,42.10
2019-05-01T11:12:27.951Z,42.50
2019-05-01T11:14:57.789Z,42.30
2019-05-01T11:17:27.586Z,43.10
2019-05-01T11:19:57.369Z,42.90
2019-05-01T11:22:27.093Z,43.40
2019-05-01T11:24:56.907Z,43.50
2019-05-01T11:27:26.705Z,43.90
2019-05-01T11:29:56.417Z,44.20
2019-05-01T11:32:51.397Z,44.30
2019-05-01T11:35:49.313Z,44.70
2019-05-01T11:38:44.582Z,44.70
2019-05-01T11:41:24.973Z,44.60
2019-05-01T11:43:54.834Z,45.40
2019-05-01T11:46:24.738Z,45.30
2019-05-01T11:48:54.624Z,45.30
2019-05-01T11:51:24.701Z,46.00
2019-05-01T11:53:54.795Z,46.00
2019-05-01T11:56:24.529Z,46.90
2019-05-01T11:58:54.262Z,46.40
2019-05-01T12:01:25.944Z,46.60
2019-05-01T12:03:55.694Z,46.20
2019-05-01T12:06:25.487Z,46.10
2019-05-01T12:08:55.366Z,46.70
2019-05-01T12:11:26.846Z,46.20
2019-05-01T12:13:56.817Z,46.20
2019-05-01T12:16:44.721Z,45.90
2019-05-01T12:19:14.634Z,45.70
2019-05-01T12:21:44.379Z,45.60
2019-05-01T12:24:14.102Z,46.00
2019-05-01T12:26:43.815Z,46.00
2019-05-01T12:29:13.689Z,47.10
2019-05-01T12:31:43.599Z,47.60
2019-05-01T12:34:13.413Z,48.40
2019-05-01T12:36:44.258Z,47.40
2019-05-01T12:39:15.917Z,47.50
2019-05-01T12:41:54.445Z,47.30
2019-05-01T12:44:24.254Z,47.70
2019-05-01T12:47:03.548Z,47.90
2019-05-01T12:49:33.433Z,47.20
2019-05-01T12:52:10.519Z,47.50
2019-05-01T12:54:46.202Z,47.70
2019-05-01T12:57:16.863Z,47.70
2019-05-01T12:59:46.689Z,47.50
2019-05-01T13:02:16.473Z,48.20
2019-05-01T13:04:46.281Z,48.40
2019-05-01T13:07:16.374Z,48.10
2019-05-01T13:09:46.108Z,48.60
2019-05-01T13:12:15.843Z,48.70
2019-05-01T13:14:45.713Z,48.10
2019-05-01T13:17:15.444Z,48.50
2019-05-01T13:19:45.162Z,48.20
2019-05-01T13:22:14.939Z,48.50
2019-05-01T13:24:50.849Z,48.60
2019-05-01T13:27:36.342Z,48.70
2019-05-01T13:30:16.960Z,48.60
2019-05-01T13:32:48.932Z,48.50
2019-05-01T13:35:18.809Z,48.80
2019-05-01T13:37:48.613Z,48.20
2019-05-01T13:40:19.569Z,48.40
2019-05-01T13:42:49.518Z,48.70
2019-05-01T13:45:19.471Z,48.20
2019-05-01T13:47:49.278Z,48.20
2019-05-01T13:50:19.152Z,47.80
2019-05-01T13:52:48.945Z,48.00
2019-05-01T13:55:18.815Z,48.20
2019-05-01T13:57:48.613Z,47.80
2019-05-01T14:00:19.172Z,47.80
2019-05-01T14:02:49.053Z,48.10
2019-05-01T14:05:19.257Z,47.90
2019-05-01T14:07:49.077Z,47.80
2019-05-01T14:10:18.946Z,48.20
2019-05-01T14:12:48.716Z,48.30
2019-05-01T14:15:18.529Z,48.50
2019-05-01T14:17:48.337Z,48.50
2019-05-01T14:20:34.049Z,48.70
2019-05-01T14:23:21.801Z,48.70
2019-05-01T14:26:09.681Z,48.70
2019-05-01T14:28:39.533Z,48.90
2019-05-01T14:31:10.873Z,48.60
2019-05-01T14:33:40.793Z,48.90
2019-05-01T14:36:10.630Z,48.60
2019-05-01T14:38:40.430Z,48.60
2019-05-01T14:41:10.308Z,48.60
2019-05-01T14:43:40.097Z,49.00
2019-05-01T14:46:09.890Z,49.00
2019-05-01T14:48:39.781Z,49.10
2019-05-01T14:51:09.599Z,49.20
2019-05-01T14:53:39.321Z,49.30
2019-05-01T14:56:09.116Z,49.40
2019-05-01T14:58:38.887Z,49.60
2019-05-01T15:01:08.761Z,49.30
2019-05-01T15:03:39.230Z,49.30
2019-05-01T15:06:09.285Z,49.30
2019-05-01T15:08:39.252Z,49.20
2019-05-01T15:11:09.145Z,49.40
2019-05-01T15:13:56.011Z,49.60
2019-05-01T15:16:30.882Z,49.50
2019-05-01T15:19:08.539Z,49.70
2019-05-01T15:21:38.459Z,49.40
2019-05-01T15:24:08.694Z,49.30
2019-05-01T15:26:38.681Z,48.80
2019-05-01T15:29:08.747Z,48.70
2019-05-01T15:31:38.699Z,48.80
2019-05-01T15:34:11.288Z,49.10
2019-05-01T15:36:41.520Z,49.40
2019-05-01T15:39:17.071Z,48.90
2019-05-01T15:42:12.018Z,48.90
2019-05-01T15:44:42.527Z,48.90
2019-05-01T15:47:12.528Z,48.80
2019-05-01T15:49:42.572Z,49.00
2019-05-01T15:52:12.526Z,48.90
2019-05-01T15:54:42.451Z,48.90
2019-05-01T15:57:12.354Z,48.80
2019-05-01T15:59:42.369Z,49.20
2019-05-01T16:02:12.355Z,49.10
2019-05-01T16:04:42.387Z,49.40
2019-05-01T16:07:13.246Z,49.40
2019-05-01T16:09:43.038Z,49.20
2019-05-01T16:12:23.672Z,49.40
2019-05-01T16:14:53.482Z,49.10
2019-05-01T16:17:23.246Z,49.10
2019-05-01T16:19:53.038Z,49.20
2019-05-01T16:22:22.932Z,48.90
2019-05-01T16:24:52.721Z,48.70
2019-05-01T16:27:22.718Z,48.80
2019-05-01T16:29:52.462Z,48.80
2019-05-01T16:32:22.378Z,49.00
2019-05-01T16:34:52.269Z,49.00
2019-05-01T16:37:22.077Z,48.90
2019-05-01T16:40:01.595Z,48.70
2019-05-01T16:42:39.597Z,49.00
2019-05-01T16:45:11.266Z,49.00
2019-05-01T16:47:41.134Z,49.20
2019-05-01T16:50:11.410Z,49.30
2019-05-01T16:52:42.561Z,49.30
2019-05-01T16:55:12.524Z,49.40
2019-05-01T16:57:42.409Z,49.40
2019-05-01T17:00:13.649Z,49.30
2019-05-01T17:03:02.612Z,49.20
2019-05-01T17:06:00.480Z,49.30
2019-05-01T17:08:48.769Z,49.00
2019-05-01T17:11:21.013Z,49.10
2019-05-01T17:13:50.915Z,48.90
2019-05-01T17:16:20.772Z,49.10
2019-05-01T17:18:50.665Z,49.30
2019-05-01T17:21:20.456Z,49.60
2019-05-01T17:23:51.320Z,49.30
2019-05-01T17:26:21.540Z,49.70
2019-05-01T17:28:51.425Z,49.60
2019-05-01T17:31:21.768Z,49.90
2019-05-01T17:33:55.513Z,49.70
2019-05-01T17:36:23.144Z,49.60
2019-05-01T17:38:52.869Z,49.70
2019-05-01T17:41:26.553Z,50.00
2019-05-01T17:43:56.579Z,49.90
2019-05-01T17:46:25.494Z,50.10
2019-05-01T17:48:55.231Z,50.00
2019-05-01T17:51:24.937Z,50.30
2019-05-01T17:53:54.679Z,50.10
2019-05-01T17:56:28.427Z,50.30
2019-05-01T17:58:55.978Z,50.40
2019-05-01T18:01:40.562Z,50.70
2019-05-01T18:04:28.714Z,50.60
2019-05-01T18:06:58.619Z,50.80
2019-05-01T18:09:28.348Z,51.00
2019-05-01T18:11:58.167Z,50.90
2019-05-01T18:14:27.975Z,51.10
2019-05-01T18:16:57.779Z,51.80
2019-05-01T18:19:27.499Z,51.60
2019-05-01T18:22:07.320Z,51.50
2019-05-01T18:24:58.498Z,51.50
2019-05-01T18:27:49.950Z,51.70
2019-05-01T18:30:20.519Z,51.60
2019-05-01T18:32:52.533Z,52.00
2019-05-01T18:35:21.752Z,51.90
2019-05-01T18:38:11.608Z,52.40
2019-05-01T18:40:46.846Z,52.60
2019-05-01T18:43:16.625Z,52.50
2019-05-01T18:45:52.227Z,52.60
2019-05-01T18:48:22.796Z,52.60
2019-05-01T18:50:55.110Z,53.10
2019-05-01T18:53:25.358Z,52.80
2019-05-01T18:55:55.262Z,52.90
2019-05-01T18:58:25.108Z,53.40
2019-05-01T19:00:54.987Z,53.10
2019-05-01T19:03:25.211Z,53.40
2019-05-01T19:05:55.416Z,53.30
2019-05-01T19:08:25.208Z,53.60
2019-05-01T19:10:55.025Z,53.60
2019-05-01T19:13:25.300Z,53.60
2019-05-01T19:15:55.045Z,54.10
2019-05-01T19:18:25.005Z,53.90
2019-05-01T19:20:59.573Z,53.80
2019-05-01T19:23:27.899Z,54.50
2019-05-01T19:26:04.915Z,54.10
2019-05-01T19:28:29.674Z,54.30
2019-05-01T19:30:59.475Z,54.30
2019-05-01T19:33:29.389Z,54.60
2019-05-01T19:36:02.742Z,54.60
2019-05-01T19:38:34.884Z,54.50
2019-05-01T19:41:03.423Z,54.80
2019-05-01T19:43:35.811Z,54.90
2019-05-01T19:46:05.397Z,54.80
2019-05-01T19:48:35.197Z,55.00
2019-05-01T19:51:05.079Z,55.20
2019-05-01T19:53:34.828Z,55.40
2019-05-01T19:56:04.850Z,55.40
2019-05-01T19:58:34.802Z,55.30
2019-05-01T20:01:06.421Z,55.50
2019-05-01T20:03:37.154Z,55.50
2019-05-01T20:06:08.393Z,55.60
2019-05-01T20:08:38.389Z,55.80
2019-05-01T20:11:09.723Z,55.90
2019-05-01T20:13:41.141Z,56.40
2019-05-01T20:16:11.381Z,55.90
2019-05-01T20:18:41.345Z,56.90
2019-05-01T20:21:11.274Z,57.00
2019-05-01T20:23:41.071Z,56.40
2019-05-01T20:26:10.886Z,56.40
2019-05-01T20:28:40.785Z,56.50
2019-05-01T20:31:10.574Z,56.60
2019-05-01T20:33:44.134Z,56.90
2019-05-01T20:36:11.881Z,56.90
2019-05-01T20:38:41.818Z,57.50
2019-05-01T20:41:16.098Z,57.00
2019-05-01T20:43:45.267Z,57.10
2019-05-01T20:46:14.961Z,57.20
2019-05-01T20:48:44.760Z,57.20
2019-05-01T20:51:14.486Z,57.40
2019-05-01T20:53:44.286Z,57.50
2019-05-01T20:56:38.924Z,57.50
2019-05-01T20:59:08.803Z,57.70
2019-05-01T21:01:38.785Z,57.50
2019-05-01T21:04:26.334Z,57.80
2019-05-01T21:07:21.315Z,58.10
2019-05-01T21:09:56.983Z,58.10
2019-05-01T21:12:25.031Z,58.20
2019-05-01T21:14:57.146Z,58.30
2019-05-01T21:17:26.861Z,58.30
2019-05-01T21:19:56.708Z,58.40
2019-05-01T21:22:28.136Z,58.50
2019-05-01T21:24:58.932Z,58.50
2019-05-01T21:27:28.793Z,58.70
2019-05-01T21:29:58.601Z,58.70
2019-05-01T21:32:28.325Z,58.80
2019-05-01T21:34:58.141Z,58.80
2019-05-01T21:37:27.933Z,58.90
2019-05-01T21:39:57.659Z,58.70
2019-05-01T21:42:32.581Z,59.00
2019-05-01T21:45:04.265Z,58.90
2019-05-01T21:47:33.534Z,59.20
2019-05-01T21:50:04.561Z,59.10
2019-05-01T21:52:34.380Z,59.10
2019-05-01T21:55:04.301Z,59.20
2019-05-01T21:57:37.867Z,59.20
2019-05-01T22:00:09.051Z,59.30
2019-05-01T22:02:41.642Z,59.20
2019-05-01T22:05:12.107Z,59.80
2019-05-01T22:07:41.826Z,59.30
2019-05-01T22:10:11.729Z,59.30
2019-05-01T22:12:44.090Z,59.40
2019-05-01T22:15:20.960Z,59.30
2019-05-01T22:18:09.518Z,59.30
2019-05-01T22:20:43.785Z,59.50
2019-05-01T22:23:17.152Z,59.50
2019-05-01T22:25:50.159Z,59.50
2019-05-01T22:28:28.425Z,59.60
2019-05-01T22:31:21.635Z,59.70
2019-05-01T22:33:55.478Z,59.70
2019-05-01T22:36:27.790Z,59.80
2019-05-01T22:39:02.293Z,59.70
2019-05-01T22:41:32.003Z,59.90
2019-05-01T22:44:01.820Z,60.10
2019-05-01T22:46:33.841Z,60.00
2019-05-01T22:49:03.626Z,60.00
2019-05-01T22:51:33.590Z,60.00
2019-05-01T22:54:03.634Z,60.00
2019-05-01T22:56:33.620Z,60.00
2019-05-01T22:59:03.951Z,60.10
2019-05-01T23:01:33.989Z,60.20
2019-05-01T23:04:12.115Z,60.30
2019-05-01T23:06:41.729Z,60.30
2019-05-01T23:09:13.000Z,60.40
2019-05-01T23:11:45.729Z,60.60
2019-05-01T23:14:17.074Z,60.30
2019-05-01T23:17:06.110Z,60.20
2019-05-01T23:19:36.266Z,60.50
2019-05-01T23:22:07.834Z,60.60
2019-05-01T23:24:37.846Z,60.60
2019-05-01T23:27:07.917Z,60.80
2019-05-01T23:29:37.838Z,60.90
2019-05-01T23:32:07.864Z,60.60
2019-05-01T23:34:37.802Z,60.90
2019-05-01T23:37:07.729Z,61.20
2019-05-01T23:39:40.441Z,61.20
2019-05-01T23:42:10.260Z,61.20
2019-05-01T23:44:42.976Z,61.10
2019-05-01T23:47:11.725Z,61.30
2019-05-01T23:49:41.704Z,61.30
2019-05-01T23:52:11.617Z,61.30
2019-05-01T23:54:41.538Z,61.40
2019-05-01T23:57:14.948Z,61.50
2019-05-01T23:59:43.041Z,61.40
